sensor_id;sensor_type;location;lat;lon;timestamp;pressure;altitude;pressure_sealevel;temperature;humidity
14089;BME280;7120;52.890;6.040;2023-06-24T00:01:17;102408.09;;;15.42;100.00
14089;BME280;7120;52.890;6.040;2023-06-24T00:03:42;102416.16;;;15.38;100.00
14089;BME280;7120;52.890;6.040;2023-06-24T00:06:12;102416.00;;;15.29;100.00
14089;BME280;7120;52.890;6.040;2023-06-24T00:08:44;102415.59;;;15.17;100.00
14089;BME280;7120;52.890;6.040;2023-06-24T00:11:10;102409.84;;;15.14;100.00
14089;BME280;7120;52.890;6.040;2023-06-24T00:13:36;102416.00;;;15.05;100.00
14089;BME280;7120;52.890;6.040;2023-06-24T00:16:02;102422.63;;;15.04;100.00
14089;BME280;7120;52.890;6.040;2023-06-24T00:18:27;102417.06;;;15.09;100.00
14089;BME280;7120;52.890;6.040;2023-06-24T00:20:55;102422.97;;;15.22;100.00
14089;BME280;7120;52.890;6.040;2023-06-24T00:23:23;102424.03;;;15.26;100.00
14089;BME280;7120;52.890;6.040;2023-06-24T00:25:52;102420.75;;;15.24;100.00
14089;BME280;7120;52.890;6.040;2023-06-24T00:28:17;102410.53;;;15.24;100.00
14089;BME280;7120;52.890;6.040;2023-06-24T00:30:43;102420.09;;;15.32;100.00
14089;BME280;7120;52.890;6.040;2023-06-24T00:33:08;102421.50;;;15.29;100.00
14089;BME280;7120;52.890;6.040;2023-06-24T00:35:34;102426.78;;;15.26;100.00
14089;BME280;7120;52.890;6.040;2023-06-24T00:37:59;102424.69;;;15.18;100.00
14089;BME280;7120;52.890;6.040;2023-06-24T00:40:25;102430.84;;;15.09;100.00
14089;BME280;7120;52.890;6.040;2023-06-24T00:42:50;102431.13;;;15.08;100.00
14089;BME280;7120;52.890;6.040;2023-06-24T00:45:16;102426.03;;;14.96;100.00
14089;BME280;7120;52.890;6.040;2023-06-24T00:47:43;102429.47;;;15.07;100.00
14089;BME280;7120;52.890;6.040;2023-06-24T00:50:09;102425.34;;;15.09;100.00
14089;BME280;7120;52.890;6.040;2023-06-24T00:52:37;102428.81;;;15.15;100.00
14089;BME280;7120;52.890;6.040;2023-06-24T00:55:07;102431.81;;;15.19;100.00
14089;BME280;7120;52.890;6.040;2023-06-24T00:57:33;102436.06;;;15.11;100.00
14089;BME280;7120;52.890;6.040;2023-06-24T00:59:59;102428.66;;;15.06;100.00
14089;BME280;7120;52.890;6.040;2023-06-24T01:02:25;102422.94;;;15.03;100.00
14089;BME280;7120;52.890;6.040;2023-06-24T01:04:53;102429.47;;;15.07;100.00
14089;BME280;7120;52.890;6.040;2023-06-24T01:07:19;102429.22;;;15.08;100.00
14089;BME280;7120;52.890;6.040;2023-06-24T01:09:46;102428.31;;;15.13;100.00
14089;BME280;7120;52.890;6.040;2023-06-24T01:12:11;102428.78;;;14.96;100.00
14089;BME280;7120;52.890;6.040;2023-06-24T01:14:37;102434.78;;;15.03;100.00
14089;BME280;7120;52.890;6.040;2023-06-24T01:17:14;102424.91;;;14.97;100.00
14089;BME280;7120;52.890;6.040;2023-06-24T01:19:53;102430.72;;;14.96;100.00
14089;BME280;7120;52.890;6.040;2023-06-24T01:27:57;102428.19;;;14.99;100.00
14089;BME280;7120;52.890;6.040;2023-06-24T01:33:22;102431.59;;;14.91;100.00
14089;BME280;7120;52.890;6.040;2023-06-24T01:35:51;102417.03;;;14.86;100.00
14089;BME280;7120;52.890;6.040;2023-06-24T01:38:41;102411.03;;;14.83;100.00
14089;BME280;7120;52.890;6.040;2023-06-24T01:41:09;102411.66;;;14.75;100.00
14089;BME280;7120;52.890;6.040;2023-06-24T01:43:35;102406.94;;;14.81;100.00
14089;BME280;7120;52.890;6.040;2023-06-24T01:46:02;102416.81;;;14.82;100.00
14089;BME280;7120;52.890;6.040;2023-06-24T01:48:32;102416.31;;;14.80;100.00
14089;BME280;7120;52.890;6.040;2023-06-24T01:51:12;102404.22;;;14.76;100.00
14089;BME280;7120;52.890;6.040;2023-06-24T01:53:41;102411.72;;;14.70;100.00
14089;BME280;7120;52.890;6.040;2023-06-24T01:56:09;102410.44;;;14.57;100.00
14089;BME280;7120;52.890;6.040;2023-06-24T01:58:36;102408.84;;;14.51;100.00
14089;BME280;7120;52.890;6.040;2023-06-24T02:01:04;102410.22;;;14.54;100.00
14089;BME280;7120;52.890;6.040;2023-06-24T02:03:32;102405.88;;;14.48;100.00
14089;BME280;7120;52.890;6.040;2023-06-24T02:05:59;102403.41;;;14.46;100.00
14089;BME280;7120;52.890;6.040;2023-06-24T02:08:32;102396.59;;;14.39;100.00
14089;BME280;7120;52.890;6.040;2023-06-24T02:10:59;102395.22;;;14.36;100.00
14089;BME280;7120;52.890;6.040;2023-06-24T02:13:26;102397.75;;;14.33;100.00
14089;BME280;7120;52.890;6.040;2023-06-24T02:15:51;102389.78;;;14.31;100.00
14089;BME280;7120;52.890;6.040;2023-06-24T02:18:18;102392.22;;;14.33;100.00
14089;BME280;7120;52.890;6.040;2023-06-24T02:20:48;102385.75;;;14.18;100.00
14089;BME280;7120;52.890;6.040;2023-06-24T02:23:14;102385.50;;;14.15;100.00
14089;BME280;7120;52.890;6.040;2023-06-24T02:25:41;102378.03;;;14.20;100.00
14089;BME280;7120;52.890;6.040;2023-06-24T02:28:07;102384.16;;;14.12;100.00
14089;BME280;7120;52.890;6.040;2023-06-24T02:30:35;102374.06;;;14.02;100.00
14089;BME280;7120;52.890;6.040;2023-06-24T02:33:01;102388.03;;;14.11;100.00
14089;BME280;7120;52.890;6.040;2023-06-24T02:35:27;102378.38;;;14.09;100.00
14089;BME280;7120;52.890;6.040;2023-06-24T02:37:52;102380.72;;;13.96;100.00
14089;BME280;7120;52.890;6.040;2023-06-24T02:40:18;102385.41;;;13.96;100.00
14089;BME280;7120;52.890;6.040;2023-06-24T02:42:43;102391.94;;;14.00;100.00
14089;BME280;7120;52.890;6.040;2023-06-24T02:45:09;102378.78;;;13.97;100.00
14089;BME280;7120;52.890;6.040;2023-06-24T02:47:35;102379.66;;;13.87;100.00
14089;BME280;7120;52.890;6.040;2023-06-24T02:50:03;102370.84;;;13.90;100.00
14089;BME280;7120;52.890;6.040;2023-06-24T02:52:30;102372.19;;;13.93;100.00
14089;BME280;7120;52.890;6.040;2023-06-24T02:54:58;102375.25;;;13.91;100.00
14089;BME280;7120;52.890;6.040;2023-06-24T02:57:25;102364.84;;;13.83;100.00
14089;BME280;7120;52.890;6.040;2023-06-24T02:59:51;102370.09;;;13.80;100.00
14089;BME280;7120;52.890;6.040;2023-06-24T03:02:16;102376.97;;;13.82;100.00
14089;BME280;7120;52.890;6.040;2023-06-24T03:04:42;102383.53;;;13.86;100.00
14089;BME280;7120;52.890;6.040;2023-06-24T03:07:08;102380.47;;;13.88;100.00
14089;BME280;7120;52.890;6.040;2023-06-24T03:09:35;102374.75;;;13.84;100.00
14089;BME280;7120;52.890;6.040;2023-06-24T03:12:01;102379.16;;;13.80;100.00
14089;BME280;7120;52.890;6.040;2023-06-24T03:14:26;102371.47;;;13.82;100.00
14089;BME280;7120;52.890;6.040;2023-06-24T03:16:52;102371.22;;;13.79;100.00
14089;BME280;7120;52.890;6.040;2023-06-24T03:19:17;102372.56;;;13.81;100.00
14089;BME280;7120;52.890;6.040;2023-06-24T03:21:43;102379.91;;;13.91;100.00
14089;BME280;7120;52.890;6.040;2023-06-24T03:24:08;102374.94;;;13.93;100.00
14089;BME280;7120;52.890;6.040;2023-06-24T03:26:41;102380.75;;;13.91;100.00
14089;BME280;7120;52.890;6.040;2023-06-24T03:29:06;102376.09;;;13.87;100.00
14089;BME280;7120;52.890;6.040;2023-06-24T03:31:33;102378.28;;;13.90;100.00
14089;BME280;7120;52.890;6.040;2023-06-24T03:33:58;102372.78;;;13.90;100.00
14089;BME280;7120;52.890;6.040;2023-06-24T03:36:24;102373.59;;;13.90;100.00
14089;BME280;7120;52.890;6.040;2023-06-24T03:38:50;102380.44;;;13.93;100.00
14089;BME280;7120;52.890;6.040;2023-06-24T03:41:16;102382.91;;;13.94;100.00
14089;BME280;7120;52.890;6.040;2023-06-24T03:43:41;102385.41;;;13.96;100.00
14089;BME280;7120;52.890;6.040;2023-06-24T03:46:07;102386.66;;;14.09;100.00
14089;BME280;7120;52.890;6.040;2023-06-24T03:48:33;102385.41;;;14.25;100.00
14089;BME280;7120;52.890;6.040;2023-06-24T03:50:58;102386.47;;;14.29;100.00
14089;BME280;7120;52.890;6.040;2023-06-24T03:53:24;102386.47;;;14.29;100.00
14089;BME280;7120;52.890;6.040;2023-06-24T03:55:49;102393.75;;;14.44;100.00
14089;BME280;7120;52.890;6.040;2023-06-24T03:58:15;102387.72;;;14.42;100.00
14089;BME280;7120;52.890;6.040;2023-06-24T04:00:42;102390.19;;;14.48;100.00
14089;BME280;7120;52.890;6.040;2023-06-24T04:03:09;102389.31;;;14.53;100.00
14089;BME280;7120;52.890;6.040;2023-06-24T04:05:34;102376.25;;;14.64;100.00
14089;BME280;7120;52.890;6.040;2023-06-24T04:08:00;102393.53;;;14.69;100.00
14089;BME280;7120;52.890;6.040;2023-06-24T04:10:26;102390.22;;;14.96;100.00
14089;BME280;7120;52.890;6.040;2023-06-24T04:12:51;102386.88;;;14.99;100.00
14089;BME280;7120;52.890;6.040;2023-06-24T04:15:17;102378.94;;;14.93;100.00
14089;BME280;7120;52.890;6.040;2023-06-24T04:17:42;102379.50;;;14.95;100.00
14089;BME280;7120;52.890;6.040;2023-06-24T04:20:08;102377.25;;;14.97;100.00
14089;BME280;7120;52.890;6.040;2023-06-24T04:22:35;102379.00;;;15.11;100.00
14089;BME280;7120;52.890;6.040;2023-06-24T04:25:01;102380.44;;;15.28;100.00
14089;BME280;7120;52.890;6.040;2023-06-24T04:27:26;102390.88;;;15.31;100.00
14089;BME280;7120;52.890;6.040;2023-06-24T04:29:52;102395.94;;;15.43;100.00
14089;BME280;7120;52.890;6.040;2023-06-24T04:32:17;102390.66;;;15.46;100.00
14089;BME280;7120;52.890;6.040;2023-06-24T04:34:43;102398.88;;;15.51;100.00
14089;BME280;7120;52.890;6.040;2023-06-24T04:37:08;102401.09;;;15.49;100.00
14089;BME280;7120;52.890;6.040;2023-06-24T04:39:33;102398.63;;;15.48;100.00
14089;BME280;7120;52.890;6.040;2023-06-24T04:41:59;102392.16;;;15.57;100.00
14089;BME280;7120;52.890;6.040;2023-06-24T04:44:24;102402.28;;;15.86;100.00
14089;BME280;7120;52.890;6.040;2023-06-24T04:46:50;102400.38;;;16.00;100.00
14089;BME280;7120;52.890;6.040;2023-06-24T04:49:17;102401.97;;;16.20;100.00
14089;BME280;7120;52.890;6.040;2023-06-24T04:51:42;102407.91;;;16.27;100.00
14089;BME280;7120;52.890;6.040;2023-06-24T04:54:08;102412.28;;;16.47;100.00
14089;BME280;7120;52.890;6.040;2023-06-24T04:56:33;102396.91;;;16.73;100.00
14089;BME280;7120;52.890;6.040;2023-06-24T04:59:00;102407.66;;;16.89;100.00
14089;BME280;7120;52.890;6.040;2023-06-24T05:01:25;102409.41;;;16.98;100.00
14089;BME280;7120;52.890;6.040;2023-06-24T05:03:51;102390.66;;;17.09;100.00
14089;BME280;7120;52.890;6.040;2023-06-24T05:06:16;102403.81;;;17.40;100.00
14089;BME280;7120;52.890;6.040;2023-06-24T05:08:42;102394.69;;;17.53;100.00
14089;BME280;7120;52.890;6.040;2023-06-24T05:11:07;102401.28;;;17.43;100.00
14089;BME280;7120;52.890;6.040;2023-06-24T05:13:32;102392.84;;;17.62;100.00
14089;BME280;7120;52.890;6.040;2023-06-24T05:15:58;102384.91;;;17.69;100.00
14089;BME280;7120;52.890;6.040;2023-06-24T05:18:23;102387.16;;;17.81;100.00
14089;BME280;7120;52.890;6.040;2023-06-24T05:20:49;102378.84;;;17.81;100.00
14089;BME280;7120;52.890;6.040;2023-06-24T05:23:14;102388.06;;;17.90;100.00
14089;BME280;7120;52.890;6.040;2023-06-24T05:25:39;102393.97;;;17.97;100.00
14089;BME280;7120;52.890;6.040;2023-06-24T05:28:05;102391.59;;;18.04;100.00
14089;BME280;7120;52.890;6.040;2023-06-24T05:30:30;102395.97;;;18.05;100.00
14089;BME280;7120;52.890;6.040;2023-06-24T05:32:56;102390.59;;;18.31;100.00
14089;BME280;7120;52.890;6.040;2023-06-24T05:35:21;102383.69;;;18.51;100.00
14089;BME280;7120;52.890;6.040;2023-06-24T05:37:46;102387.03;;;18.62;100.00
14089;BME280;7120;52.890;6.040;2023-06-24T05:40:12;102382.59;;;18.92;100.00
14089;BME280;7120;52.890;6.040;2023-06-24T05:42:38;102385.88;;;19.03;100.00
14089;BME280;7120;52.890;6.040;2023-06-24T05:45:05;102387.56;;;19.21;100.00
14089;BME280;7120;52.890;6.040;2023-06-24T05:47:31;102384.44;;;19.05;100.00
14089;BME280;7120;52.890;6.040;2023-06-24T05:49:57;102394.63;;;19.36;100.00
14089;BME280;7120;52.890;6.040;2023-06-24T05:52:22;102395.09;;;19.38;100.00
14089;BME280;7120;52.890;6.040;2023-06-24T05:54:48;102380.13;;;19.56;100.00
14089;BME280;7120;52.890;6.040;2023-06-24T05:57:13;102383.09;;;19.68;100.00
14089;BME280;7120;52.890;6.040;2023-06-24T05:59:39;102387.50;;;19.87;100.00
14089;BME280;7120;52.890;6.040;2023-06-24T06:02:04;102389.13;;;20.05;100.00
14089;BME280;7120;52.890;6.040;2023-06-24T06:04:29;102379.81;;;20.10;100.00
14089;BME280;7120;52.890;6.040;2023-06-24T06:06:55;102380.25;;;20.20;100.00
14089;BME280;7120;52.890;6.040;2023-06-24T06:09:22;102386.63;;;20.38;100.00
14089;BME280;7120;52.890;6.040;2023-06-24T06:11:47;102392.56;;;20.75;100.00
14089;BME280;7120;52.890;6.040;2023-06-24T06:14:13;102393.44;;;21.26;100.00
14089;BME280;7120;52.890;6.040;2023-06-24T06:16:38;102391.19;;;21.49;100.00
14089;BME280;7120;52.890;6.040;2023-06-24T06:19:04;102393.75;;;21.75;100.00
14089;BME280;7120;52.890;6.040;2023-06-24T06:21:29;102392.38;;;22.02;100.00
14089;BME280;7120;52.890;6.040;2023-06-24T06:23:55;102395.81;;;21.86;100.00
14089;BME280;7120;52.890;6.040;2023-06-24T06:26:21;102393.22;;;21.81;100.00
14089;BME280;7120;52.890;6.040;2023-06-24T06:28:46;102393.59;;;22.13;100.00
14089;BME280;7120;52.890;6.040;2023-06-24T06:31:16;102394.25;;;22.31;100.00
14089;BME280;7120;52.890;6.040;2023-06-24T06:33:42;102395.72;;;22.16;100.00
14089;BME280;7120;52.890;6.040;2023-06-24T06:36:08;102389.69;;;22.26;100.00
14089;BME280;7120;52.890;6.040;2023-06-24T06:38:33;102387.19;;;22.45;100.00
14089;BME280;7120;52.890;6.040;2023-06-24T06:40:59;102396.63;;;22.65;100.00
14089;BME280;7120;52.890;6.040;2023-06-24T06:43:25;102395.28;;;22.96;100.00
14089;BME280;7120;52.890;6.040;2023-06-24T06:45:52;102391.09;;;22.78;100.00
14089;BME280;7120;52.890;6.040;2023-06-24T06:48:17;102389.72;;;22.96;93.15
14089;BME280;7120;52.890;6.040;2023-06-24T06:50:44;102392.50;;;23.20;95.38
14089;BME280;7120;52.890;6.040;2023-06-24T06:53:09;102384.84;;;23.57;100.00
14089;BME280;7120;52.890;6.040;2023-06-24T06:55:36;102391.34;;;23.74;93.68
14089;BME280;7120;52.890;6.040;2023-06-24T06:58:02;102394.72;;;23.79;88.48
14089;BME280;7120;52.890;6.040;2023-06-24T07:00:28;102398.25;;;24.20;89.04
14089;BME280;7120;52.890;6.040;2023-06-24T07:02:53;102388.09;;;24.00;85.48
14089;BME280;7120;52.890;6.040;2023-06-24T07:05:18;102400.13;;;24.16;83.34
14089;BME280;7120;52.890;6.040;2023-06-24T07:07:44;102404.25;;;24.06;80.08
14089;BME280;7120;52.890;6.040;2023-06-24T07:10:11;102402.91;;;24.44;80.02
14089;BME280;7120;52.890;6.040;2023-06-24T07:12:36;102396.88;;;24.14;74.82
14089;BME280;7120;52.890;6.040;2023-06-24T07:15:02;102397.50;;;24.35;79.01
14089;BME280;7120;52.890;6.040;2023-06-24T07:17:27;102389.38;;;24.02;69.06
14089;BME280;7120;52.890;6.040;2023-06-24T07:19:53;102392.22;;;24.46;70.40
14089;BME280;7120;52.890;6.040;2023-06-24T07:22:18;102392.47;;;24.41;67.11
14089;BME280;7120;52.890;6.040;2023-06-24T07:24:44;102396.00;;;24.54;67.70
14089;BME280;7120;52.890;6.040;2023-06-24T07:27:09;102398.25;;;24.48;68.06
14089;BME280;7120;52.890;6.040;2023-06-24T07:29:34;102391.84;;;24.63;70.16
14089;BME280;7120;52.890;6.040;2023-06-24T07:32:00;102399.59;;;24.86;67.90
14089;BME280;7120;52.890;6.040;2023-06-24T07:34:26;102403.47;;;24.34;65.60
14089;BME280;7120;52.890;6.040;2023-06-24T07:36:51;102400.22;;;24.48;63.55
14089;BME280;7120;52.890;6.040;2023-06-24T07:39:17;102399.22;;;24.40;62.04
14089;BME280;7120;52.890;6.040;2023-06-24T07:41:42;102396.78;;;24.86;66.34
14089;BME280;7120;52.890;6.040;2023-06-24T07:44:09;102405.38;;;25.25;64.72
14089;BME280;7120;52.890;6.040;2023-06-24T07:46:34;102401.88;;;25.47;62.93
14089;BME280;7120;52.890;6.040;2023-06-24T07:49:00;102396.63;;;25.45;65.48
14089;BME280;7120;52.890;6.040;2023-06-24T07:51:25;102393.53;;;25.31;64.40
14089;BME280;7120;52.890;6.040;2023-06-24T07:53:51;102392.44;;;25.55;67.61
14089;BME280;7120;52.890;6.040;2023-06-24T07:56:16;102401.97;;;25.35;64.62
14089;BME280;7120;52.890;6.040;2023-06-24T07:58:41;102397.88;;;24.97;65.96
14089;BME280;7120;52.890;6.040;2023-06-24T08:01:07;102393.00;;;24.78;65.35
14089;BME280;7120;52.890;6.040;2023-06-24T08:03:33;102408.09;;;24.89;66.69
14089;BME280;7120;52.890;6.040;2023-06-24T08:05:59;102392.81;;;25.18;69.26
14089;BME280;7120;52.890;6.040;2023-06-24T08:08:24;102399.75;;;25.25;68.23
14089;BME280;7120;52.890;6.040;2023-06-24T08:10:49;102407.50;;;25.66;64.51
14089;BME280;7120;52.890;6.040;2023-06-24T08:13:15;102406.78;;;25.89;66.52
14089;BME280;7120;52.890;6.040;2023-06-24T08:15:40;102402.91;;;27.61;57.39
14089;BME280;7120;52.890;6.040;2023-06-24T08:18:05;102382.59;;;28.05;55.33
14089;BME280;7120;52.890;6.040;2023-06-24T08:20:31;102398.13;;;27.91;55.80
14089;BME280;7120;52.890;6.040;2023-06-24T08:22:56;102396.19;;;28.33;53.77
14089;BME280;7120;52.890;6.040;2023-06-24T08:25:21;102398.25;;;28.84;52.10
14089;BME280;7120;52.890;6.040;2023-06-24T08:27:47;102401.22;;;29.02;51.30
14089;BME280;7120;52.890;6.040;2023-06-24T08:30:13;102398.09;;;29.87;48.28
14089;BME280;7120;52.890;6.040;2023-06-24T08:32:41;102400.09;;;29.86;47.24
14089;BME280;7120;52.890;6.040;2023-06-24T08:35:08;102411.13;;;30.27;48.75
14089;BME280;7120;52.890;6.040;2023-06-24T08:37:35;102397.81;;;30.10;47.68
14089;BME280;7120;52.890;6.040;2023-06-24T08:40:01;102400.66;;;30.24;47.07
14089;BME280;7120;52.890;6.040;2023-06-24T08:42:26;102394.22;;;30.55;46.96
14089;BME280;7120;52.890;6.040;2023-06-24T08:44:51;102408.69;;;30.22;45.40
14089;BME280;7120;52.890;6.040;2023-06-24T08:47:18;102399.09;;;30.69;44.35
14089;BME280;7120;52.890;6.040;2023-06-24T08:49:48;102411.59;;;30.93;44.24
14089;BME280;7120;52.890;6.040;2023-06-24T08:52:16;102402.34;;;30.68;44.19
14089;BME280;7120;52.890;6.040;2023-06-24T08:54:46;102397.88;;;30.70;43.39
14089;BME280;7120;52.890;6.040;2023-06-24T08:57:11;102396.47;;;31.78;41.10
14089;BME280;7120;52.890;6.040;2023-06-24T08:59:40;102396.59;;;31.42;42.20
14089;BME280;7120;52.890;6.040;2023-06-24T09:02:06;102395.84;;;32.19;41.38
14089;BME280;7120;52.890;6.040;2023-06-24T09:04:32;102389.81;;;32.13;40.55
14089;BME280;7120;52.890;6.040;2023-06-24T09:06:57;102396.16;;;32.32;39.64
14089;BME280;7120;52.890;6.040;2023-06-24T09:09:23;102401.50;;;30.39;42.96
14089;BME280;7120;52.890;6.040;2023-06-24T09:12:12;102401.44;;;30.17;47.88
14089;BME280;7120;52.890;6.040;2023-06-24T09:14:37;102389.38;;;30.99;45.80
14089;BME280;7120;52.890;6.040;2023-06-24T09:17:03;102394.66;;;30.79;47.03
14089;BME280;7120;52.890;6.040;2023-06-24T09:19:32;102390.53;;;31.51;41.42
14089;BME280;7120;52.890;6.040;2023-06-24T09:22:06;102391.63;;;31.71;43.54
14089;BME280;7120;52.890;6.040;2023-06-24T09:24:35;102383.00;;;32.07;41.05
14089;BME280;7120;52.890;6.040;2023-06-24T09:27:02;102389.78;;;30.94;43.40
14089;BME280;7120;52.890;6.040;2023-06-24T09:29:31;102390.47;;;31.62;44.39
14089;BME280;7120;52.890;6.040;2023-06-24T09:31:57;102385.31;;;31.28;45.67
14089;BME280;7120;52.890;6.040;2023-06-24T09:34:25;102382.09;;;31.37;41.89
14089;BME280;7120;52.890;6.040;2023-06-24T09:36:52;102378.06;;;31.24;42.28
14089;BME280;7120;52.890;6.040;2023-06-24T09:39:19;102374.03;;;31.07;42.41
14089;BME280;7120;52.890;6.040;2023-06-24T09:41:49;102374.72;;;31.61;41.50
14089;BME280;7120;52.890;6.040;2023-06-24T09:44:17;102379.59;;;31.53;42.33
14089;BME280;7120;52.890;6.040;2023-06-24T09:46:46;102380.03;;;32.29;40.90
14089;BME280;7120;52.890;6.040;2023-06-24T09:49:12;102379.50;;;31.78;40.69
14089;BME280;7120;52.890;6.040;2023-06-24T09:51:38;102378.47;;;32.13;42.93
14089;BME280;7120;52.890;6.040;2023-06-24T09:54:08;102376.19;;;31.90;40.00
14089;BME280;7120;52.890;6.040;2023-06-24T09:56:39;102371.00;;;31.78;40.53
14089;BME280;7120;52.890;6.040;2023-06-24T09:59:08;102369.81;;;32.90;42.12
14089;BME280;7120;52.890;6.040;2023-06-24T10:01:36;102367.09;;;32.24;40.93
14089;BME280;7120;52.890;6.040;2023-06-24T10:04:04;102368.94;;;32.48;42.21
14089;BME280;7120;52.890;6.040;2023-06-24T10:06:32;102372.81;;;32.72;39.50
14089;BME280;7120;52.890;6.040;2023-06-24T10:08:58;102373.38;;;32.53;40.74
14089;BME280;7120;52.890;6.040;2023-06-24T10:11:24;102371.28;;;32.61;39.64
14089;BME280;7120;52.890;6.040;2023-06-24T10:13:49;102361.88;;;33.12;37.04
14089;BME280;7120;52.890;6.040;2023-06-24T10:16:15;102372.13;;;32.58;42.00
14089;BME280;7120;52.890;6.040;2023-06-24T10:18:43;102357.72;;;32.83;40.39
14089;BME280;7120;52.890;6.040;2023-06-24T10:21:09;102361.50;;;32.13;40.30
14089;BME280;7120;52.890;6.040;2023-06-24T10:26:29;102360.41;;;33.69;36.41
14089;BME280;7120;52.890;6.040;2023-06-24T10:34:27;102363.56;;;34.32;36.48
14089;BME280;7120;52.890;6.040;2023-06-24T10:36:59;102364.13;;;32.94;37.98
14089;BME280;7120;52.890;6.040;2023-06-24T10:39:39;102368.91;;;34.03;39.87
14089;BME280;7120;52.890;6.040;2023-06-24T10:47:44;102374.75;;;33.58;32.93
14089;BME280;7120;52.890;6.040;2023-06-24T10:50:11;102369.06;;;34.19;33.77
14089;BME280;7120;52.890;6.040;2023-06-24T10:52:45;102370.72;;;34.17;34.02
14089;BME280;7120;52.890;6.040;2023-06-24T10:55:14;102362.41;;;33.38;35.02
14089;BME280;7120;52.890;6.040;2023-06-24T10:57:40;102369.69;;;34.57;33.41
14089;BME280;7120;52.890;6.040;2023-06-24T11:00:06;102365.13;;;34.63;33.48
14089;BME280;7120;52.890;6.040;2023-06-24T11:02:32;102354.91;;;34.89;33.97
14089;BME280;7120;52.890;6.040;2023-06-24T11:04:59;102364.78;;;34.07;32.85
14089;BME280;7120;52.890;6.040;2023-06-24T11:07:26;102364.13;;;33.96;33.00
14089;BME280;7120;52.890;6.040;2023-06-24T11:09:56;102370.59;;;34.74;32.73
14089;BME280;7120;52.890;6.040;2023-06-24T11:12:30;102360.47;;;34.23;32.68
14089;BME280;7120;52.890;6.040;2023-06-24T11:15:01;102358.84;;;32.96;33.65
14089;BME280;7120;52.890;6.040;2023-06-24T11:17:27;102359.25;;;33.97;33.69
14089;BME280;7120;52.890;6.040;2023-06-24T11:19:53;102351.97;;;34.97;34.10
14089;BME280;7120;52.890;6.040;2023-06-24T11:22:19;102355.53;;;35.20;30.87
14089;BME280;7120;52.890;6.040;2023-06-24T11:24:45;102361.94;;;34.34;31.98
14089;BME280;7120;52.890;6.040;2023-06-24T11:27:10;102358.59;;;33.85;32.56
14089;BME280;7120;52.890;6.040;2023-06-24T11:29:36;102355.31;;;34.88;32.87
14089;BME280;7120;52.890;6.040;2023-06-24T11:32:02;102360.84;;;34.52;30.75
14089;BME280;7120;52.890;6.040;2023-06-24T11:34:28;102360.84;;;34.25;34.99
14089;BME280;7120;52.890;6.040;2023-06-24T11:36:54;102347.03;;;34.54;31.98
14089;BME280;7120;52.890;6.040;2023-06-24T11:39:24;102352.28;;;34.01;35.46
14089;BME280;7120;52.890;6.040;2023-06-24T11:41:50;102347.38;;;35.22;31.76
14089;BME280;7120;52.890;6.040;2023-06-24T11:44:17;102354.72;;;34.53;32.22
14089;BME280;7120;52.890;6.040;2023-06-24T11:46:43;102348.09;;;35.07;30.78
14089;BME280;7120;52.890;6.040;2023-06-24T11:49:09;102346.91;;;34.61;34.51
14089;BME280;7120;52.890;6.040;2023-06-24T11:51:36;102344.06;;;34.81;32.70
14089;BME280;7120;52.890;6.040;2023-06-24T11:54:03;102346.69;;;34.72;33.98
14089;BME280;7120;52.890;6.040;2023-06-24T11:56:42;102339.31;;;34.27;30.88
14089;BME280;7120;52.890;6.040;2023-06-24T11:59:19;102335.09;;;34.12;32.74
14089;BME280;7120;52.890;6.040;2023-06-24T12:01:51;102332.56;;;35.11;32.84
14089;BME280;7120;52.890;6.040;2023-06-24T12:04:17;102339.03;;;34.18;31.42
14089;BME280;7120;52.890;6.040;2023-06-24T12:06:43;102343.94;;;34.68;30.97
14089;BME280;7120;52.890;6.040;2023-06-24T12:09:10;102335.00;;;34.89;30.87
14089;BME280;7120;52.890;6.040;2023-06-24T12:11:36;102335.38;;;34.91;33.73
14089;BME280;7120;52.890;6.040;2023-06-24T12:14:01;102332.31;;;35.02;32.08
14089;BME280;7120;52.890;6.040;2023-06-24T12:16:27;102333.22;;;35.19;32.08
14089;BME280;7120;52.890;6.040;2023-06-24T12:18:53;102339.91;;;35.09;30.43
14089;BME280;7120;52.890;6.040;2023-06-24T12:21:19;102329.56;;;34.99;31.20
14089;BME280;7120;52.890;6.040;2023-06-24T12:23:44;102332.66;;;35.47;33.21
14089;BME280;7120;52.890;6.040;2023-06-24T12:26:10;102332.72;;;35.24;30.13
14089;BME280;7120;52.890;6.040;2023-06-24T12:28:36;102335.19;;;35.22;31.49
14089;BME280;7120;52.890;6.040;2023-06-24T12:31:01;102329.50;;;35.62;32.17
14089;BME280;7120;52.890;6.040;2023-06-24T12:33:27;102325.63;;;34.92;31.43
14089;BME280;7120;52.890;6.040;2023-06-24T12:35:52;102331.34;;;33.92;33.54
14089;BME280;7120;52.890;6.040;2023-06-24T12:38:17;102328.16;;;34.40;32.19
14089;BME280;7120;52.890;6.040;2023-06-24T12:40:43;102324.25;;;34.77;33.44
14089;BME280;7120;52.890;6.040;2023-06-24T12:43:08;102315.25;;;34.82;34.04
14089;BME280;7120;52.890;6.040;2023-06-24T12:45:34;102319.00;;;34.76;34.70
14089;BME280;7120;52.890;6.040;2023-06-24T12:47:59;102314.63;;;34.71;31.22
14089;BME280;7120;52.890;6.040;2023-06-24T12:50:25;102325.53;;;33.41;35.23
14089;BME280;7120;52.890;6.040;2023-06-24T12:52:50;102318.06;;;34.35;34.67
14089;BME280;7120;52.890;6.040;2023-06-24T12:55:16;102315.66;;;34.81;33.52
14089;BME280;7120;52.890;6.040;2023-06-24T12:57:41;102318.69;;;35.13;33.19
14089;BME280;7120;52.890;6.040;2023-06-24T13:00:07;102309.44;;;35.29;32.33
14089;BME280;7120;52.890;6.040;2023-06-24T13:02:33;102316.44;;;35.44;33.66
14089;BME280;7120;52.890;6.040;2023-06-24T13:04:59;102317.03;;;35.92;30.70
14089;BME280;7120;52.890;6.040;2023-06-24T13:07:25;102319.16;;;35.12;31.74
14089;BME280;7120;52.890;6.040;2023-06-24T13:09:50;102311.97;;;35.99;31.13
14089;BME280;7120;52.890;6.040;2023-06-24T13:12:15;102310.19;;;34.70;32.54
14089;BME280;7120;52.890;6.040;2023-06-24T13:14:41;102312.66;;;34.91;32.93